Time;durP1;ratioP1;P1;durP2;ratioP2;P2;SDS_P1;SDS_P2;PMS_P1;PMS_P2;Temp;Humidity;BMP_temperature;BMP_pressure;BME280_temperature;BME280_humidity;BME280_pressure;Samples;Min_cycle;Max_cycle;Signal;HPM_P1;HPM_P2
2022/09/22 00:01:53;;;;;;;;;;;;;;;13.73;57.27;100371.88;4416110;32;19986;-85
2022/09/22 00:04:20;;;;;;;;;;;;;;;14.03;56.35;100368.72;4414931;32;19993;-85
2022/09/22 00:06:50;;;;;;;;;;;;;;;14.10;55.98;100367.97;4419155;32;19970;-83
2022/09/22 00:09:18;;;;;;;;;;;;;;;13.94;56.73;100373.84;4413715;32;20429;-85
2022/09/22 00:11:46;;;;;;;;;;;;;;;13.80;57.35;100373.69;4420649;32;20065;-85
2022/09/22 00:14:14;;;;;;;;;;;;;;;13.96;56.91;100375.59;4413023;32;20180;-85
2022/09/22 00:16:43;;;;;;;;;;;;;;;13.90;56.81;100367.72;4418532;32;20008;-85
2022/09/22 00:19:12;;;;;;;;;;;;;;;13.90;56.71;100365.13;4420889;32;20653;-84
2022/09/22 00:21:39;;;;;;;;;;;;;;;14.07;55.90;100351.41;4419429;32;19993;-83
2022/09/22 00:24:06;;;;;;;;;;;;;;;14.03;55.91;100357.44;4416470;32;19978;-84
2022/09/22 00:26:34;;;;;;;;;;;;;;;13.84;56.66;100358.97;4422297;32;19988;-84
2022/09/22 00:29:01;;;;;;;;;;;;;;;13.96;56.34;100359.13;4435614;32;19989;-84
2022/09/22 00:31:28;;;;;;;;;;;;;;;13.86;56.77;100365.09;4445463;32;20018;-85
2022/09/22 00:33:55;;;;;;;;;;;;;;;13.97;56.61;100360.84;4446701;32;19981;-85
2022/09/22 00:36:24;;;;;;;;;;;;;;;13.97;56.29;100358.25;4443005;32;20402;-84
2022/09/22 00:38:51;;;;;;;;;;;;;;;13.89;56.79;100357.31;4437986;32;20016;-85
2022/09/22 00:41:29;;;;;;;;;;;;;;;13.87;56.75;100359.88;4431448;32;20318;-85
2022/09/22 00:44:14;;;;;;;;;;;;;;;13.82;56.97;100353.78;4429832;32;20452;-85
2022/09/22 00:46:42;;;;;;;;;;;;;;;13.63;57.37;100354.41;4431569;32;20036;-84
2022/09/22 00:49:09;;;;;;;;;;;;;;;13.91;56.23;100359.09;4426917;32;20004;-84
2022/09/22 00:51:36;;;;;;;;;;;;;;;13.92;56.33;100347.81;4436251;32;19965;-84
2022/09/22 00:54:04;;;;;;;;;;;;;;;13.61;57.57;100356.13;4436592;32;20754;-85
2022/09/22 00:56:49;;;;;;;;;;;;;;;13.85;56.29;100346.00;4430039;32;20045;-84
2022/09/22 00:59:16;;;;;;;;;;;;;;;13.42;57.71;100349.81;4413209;32;19990;-84
2022/09/22 01:01:44;;;;;;;;;;;;;;;13.69;56.86;100349.28;4436800;32;19973;-84
2022/09/22 01:04:11;;;;;;;;;;;;;;;13.69;56.58;100349.28;4429567;32;19986;-85
2022/09/22 01:06:38;;;;;;;;;;;;;;;13.77;56.17;100342.44;4431245;32;20072;-84
2022/09/22 01:09:05;;;;;;;;;;;;;;;13.70;56.14;100345.81;4430226;32;19985;-84
2022/09/22 01:11:32;;;;;;;;;;;;;;;13.66;56.51;100349.25;4429788;32;20326;-84
2022/09/22 01:14:15;;;;;;;;;;;;;;;13.68;56.21;100342.31;4433638;32;19995;-84
2022/09/22 01:16:54;;;;;;;;;;;;;;;13.30;57.65;100340.12;4415857;32;19977;-84
2022/09/22 01:19:31;;;;;;;;;;;;;;;13.44;57.00;100338.59;4415616;32;20397;-84
2022/09/22 01:22:15;;;;;;;;;;;;;;;13.47;56.76;100333.41;4414368;32;19986;-84
2022/09/22 01:24:42;;;;;;;;;;;;;;;13.56;56.58;100336.97;4414067;32;19990;-85
2022/09/22 01:27:21;;;;;;;;;;;;;;;13.41;57.14;100333.34;4415265;32;19978;-83
2022/09/22 01:29:54;;;;;;;;;;;;;;;13.26;57.02;100334.00;4417826;32;20004;-85
2022/09/22 01:32:26;;;;;;;;;;;;;;;13.34;56.72;100334.12;4461818;32;20360;-85
2022/09/22 01:35:08;;;;;;;;;;;;;;;13.47;56.36;100337.75;4461387;32;19996;-85
2022/09/22 01:37:54;;;;;;;;;;;;;;;13.53;56.32;100336.94;4441188;32;19985;-85
2022/09/22 01:40:45;;;;;;;;;;;;;;;13.35;56.76;100343.66;4461653;32;19992;-84
2022/09/22 01:43:35;;;;;;;;;;;;;;;13.23;57.20;100339.13;4455323;32;19983;-85
2022/09/22 01:46:04;;;;;;;;;;;;;;;13.23;56.98;100344.34;4457003;32;20344;-83
2022/09/22 01:48:31;;;;;;;;;;;;;;;13.32;56.90;100348.81;4446834;32;19992;-85
2022/09/22 01:51:07;;;;;;;;;;;;;;;13.45;56.40;100342.91;4447160;32;20007;-85
2022/09/22 01:53:41;;;;;;;;;;;;;;;13.47;56.29;100343.81;4434105;32;19980;-85
2022/09/22 01:56:08;;;;;;;;;;;;;;;13.41;56.43;100343.75;4446888;32;20305;-85
2022/09/22 01:58:45;;;;;;;;;;;;;;;13.42;56.40;100345.47;4447229;32;20336;-84
2022/09/22 02:01:16;;;;;;;;;;;;;;;13.39;56.80;100335.03;4461407;32;20040;-84
2022/09/22 02:03:51;;;;;;;;;;;;;;;13.40;56.75;100342.00;4447250;32;20570;-84
2022/09/22 02:06:19;;;;;;;;;;;;;;;13.65;56.39;100334.47;4449404;32;20039;-85
2022/09/22 02:08:46;;;;;;;;;;;;;;;13.26;57.68;100325.34;4448565;32;19985;-85
2022/09/22 02:11:15;;;;;;;;;;;;;;;13.18;58.06;100329.56;4448922;32;20031;-84
2022/09/22 02:13:42;;;;;;;;;;;;;;;13.26;57.91;100333.13;4449361;32;19973;-84
2022/09/22 02:16:10;;;;;;;;;;;;;;;13.45;56.94;100335.13;4448452;32;19988;-86
2022/09/22 02:18:40;;;;;;;;;;;;;;;13.56;56.72;100334.38;4463523;32;20000;-86
2022/09/22 02:21:07;;;;;;;;;;;;;;;13.42;57.00;100342.88;4463030;32;19985;-85
2022/09/22 02:23:34;;;;;;;;;;;;;;;13.11;58.31;100338.09;4448868;32;19976;-85
2022/09/22 02:26:02;;;;;;;;;;;;;;;13.26;57.61;100334.00;4448513;32;20262;-85
2022/09/22 02:28:30;;;;;;;;;;;;;;;13.22;57.75;100334.81;4449131;32;19989;-85
2022/09/22 02:30:57;;;;;;;;;;;;;;;13.10;58.46;100331.16;4449199;32;20293;-85
2022/09/22 02:33:44;;;;;;;;;;;;;;;13.03;58.81;100336.28;4451240;32;20262;-84
2022/09/22 02:36:16;;;;;;;;;;;;;;;13.34;57.49;100328.94;4463452;32;20004;-86
2022/09/22 02:38:52;;;;;;;;;;;;;;;13.36;57.14;100335.00;4429348;32;20019;-84
2022/09/22 02:41:25;;;;;;;;;;;;;;;13.08;58.03;100330.25;4436200;32;19989;-85
2022/09/22 02:44:06;;;;;;;;;;;;;;;12.86;58.74;100332.56;4449164;32;20423;-85
2022/09/22 02:46:37;;;;;;;;;;;;;;;12.92;58.38;100336.97;4436059;32;20011;-85
2022/09/22 02:49:06;;;;;;;;;;;;;;;13.17;57.34;100332.97;4447818;32;20030;-85
2022/09/22 02:51:34;;;;;;;;;;;;;;;13.08;57.43;100338.94;4448713;32;19988;-84
2022/09/22 02:54:02;;;;;;;;;;;;;;;13.16;57.34;100331.25;4448496;32;20372;-86
2022/09/22 02:56:29;;;;;;;;;;;;;;;13.03;57.62;100335.41;4462966;32;19980;-85
2022/09/22 02:58:56;;;;;;;;;;;;;;;13.23;56.98;100333.06;4444628;32;19995;-85
2022/09/22 03:01:24;;;;;;;;;;;;;;;12.83;58.32;100331.63;4463098;32;20030;-85
2022/09/22 03:03:51;;;;;;;;;;;;;;;12.97;57.37;100330.97;4448958;32;19992;-85
2022/09/22 03:06:18;;;;;;;;;;;;;;;13.01;57.47;100332.75;4462500;32;20004;-85
2022/09/22 03:08:45;;;;;;;;;;;;;;;13.06;57.07;100335.44;4462900;32;19973;-85
2022/09/22 03:11:11;;;;;;;;;;;;;;;12.97;57.13;100320.59;4463478;32;20768;-85
2022/09/22 03:13:38;;;;;;;;;;;;;;;12.94;57.74;100336.13;4447450;32;20714;-86
2022/09/22 03:16:05;;;;;;;;;;;;;;;12.66;58.43;100323.59;4448000;32;20035;-85
2022/09/22 03:18:32;;;;;;;;;;;;;;;12.93;57.50;100334.41;4449003;32;20687;-85
2022/09/22 03:20:59;;;;;;;;;;;;;;;12.83;57.52;100340.31;4462986;32;20270;-85
2022/09/22 03:23:26;;;;;;;;;;;;;;;12.92;57.03;100330.06;4462773;32;20653;-85
2022/09/22 03:25:53;;;;;;;;;;;;;;;12.87;57.27;100334.31;4462589;32;20330;-85
2022/09/22 03:28:20;;;;;;;;;;;;;;;12.83;57.63;100337.72;4462726;32;19981;-85
2022/09/22 03:30:47;;;;;;;;;;;;;;;12.69;57.92;100334.88;4462813;32;19976;-86
2022/09/22 03:33:13;;;;;;;;;;;;;;;12.76;58.20;100335.84;4463202;32;20373;-85
2022/09/22 03:35:41;;;;;;;;;;;;;;;12.90;57.72;100334.34;4462492;32;19981;-85
2022/09/22 03:38:08;;;;;;;;;;;;;;;12.96;57.50;100329.25;4448166;32;20030;-85
2022/09/22 03:40:34;;;;;;;;;;;;;;;12.93;57.65;100329.19;4435603;32;20030;-86
2022/09/22 03:43:01;;;;;;;;;;;;;;;12.93;57.68;100331.81;4462603;32;19969;-85
2022/09/22 03:45:28;;;;;;;;;;;;;;;12.79;58.25;100325.50;4462295;32;20026;-85
2022/09/22 03:47:55;;;;;;;;;;;;;;;12.92;57.82;100319.66;4462712;32;20026;-86
2022/09/22 03:50:22;;;;;;;;;;;;;;;12.70;58.49;100320.19;4461440;32;19976;-85
2022/09/22 03:52:49;;;;;;;;;;;;;;;12.64;58.83;100326.19;4422635;32;20387;-85
2022/09/22 03:55:15;;;;;;;;;;;;;;;12.80;58.22;100324.69;4462017;32;19980;-86
2022/09/22 03:57:42;;;;;;;;;;;;;;;12.79;58.24;100325.50;4462569;32;20006;-85
2022/09/22 04:00:10;;;;;;;;;;;;;;;12.79;57.98;100320.31;4461724;32;19980;-85
2022/09/22 04:02:37;;;;;;;;;;;;;;;12.62;58.72;100316.59;4461669;32;20038;-85
2022/09/22 04:05:04;;;;;;;;;;;;;;;12.76;58.37;100320.28;4448442;32;19981;-85
2022/09/22 04:07:31;;;;;;;;;;;;;;;12.64;58.88;100325.31;4448210;32;19984;-84
2022/09/22 04:09:57;;;;;;;;;;;;;;;12.51;59.44;100319.03;4448098;32;20359;-85
2022/09/22 04:12:24;;;;;;;;;;;;;;;12.49;59.07;100319.00;4461529;32;19985;-86
2022/09/22 04:14:51;;;;;;;;;;;;;;;12.60;58.58;100323.50;4431254;32;19973;-86
2022/09/22 04:17:19;;;;;;;;;;;;;;;12.49;59.14;100321.59;4426649;32;20361;-85
2022/09/22 04:19:46;;;;;;;;;;;;;;;12.25;59.90;100323.78;4417508;32;20002;-85
2022/09/22 04:22:13;;;;;;;;;;;;;;;12.30;59.56;100324.75;4416160;32;19974;-85
2022/09/22 04:24:40;;;;;;;;;;;;;;;12.69;58.22;100328.84;4416253;32;20001;-90
2022/09/22 04:27:07;;;;;;;;;;;;;;;12.41;58.88;100327.50;4422953;32;19996;-87
2022/09/22 04:29:46;;;;;;;;;;;;;;;12.48;58.24;100330.25;4416290;32;20647;-86
2022/09/22 04:32:13;;;;;;;;;;;;;;;12.52;58.22;100326.84;4416218;32;20704;-85
2022/09/22 04:34:40;;;;;;;;;;;;;;;12.57;57.87;100329.50;4417368;32;19986;-87
2022/09/22 04:37:07;;;;;;;;;;;;;;;12.42;58.13;100334.47;4423177;32;19993;-88
2022/09/22 04:39:34;;;;;;;;;;;;;;;12.56;57.81;100333.81;4417939;32;20345;-91
2022/09/22 04:42:01;;;;;;;;;;;;;;;12.28;58.86;100342.00;4427658;32;19997;-88
2022/09/22 04:44:28;;;;;;;;;;;;;;;12.25;59.45;100334.16;4430982;32;19997;-85
2022/09/22 04:47:00;;;;;;;;;;;;;;;12.43;58.83;100347.47;4431465;32;20302;-88
2022/09/22 04:49:27;;;;;;;;;;;;;;;12.32;59.55;100338.63;4422755;32;19986;-85
2022/09/22 04:51:54;;;;;;;;;;;;;;;12.21;59.99;100341.03;4420346;32;19986;-88
2022/09/22 04:54:21;;;;;;;;;;;;;;;12.48;59.07;100340.62;4419366;32;19982;-85
2022/09/22 04:56:48;;;;;;;;;;;;;;;12.20;59.85;100335.84;4431330;32;20003;-79
2022/09/22 04:59:15;;;;;;;;;;;;;;;12.56;58.78;100339.03;4416694;32;19997;-88
2022/09/22 05:01:42;;;;;;;;;;;;;;;12.69;58.01;100339.22;4422595;32;19969;-94
2022/09/22 05:04:08;;;;;;;;;;;;;;;12.46;59.04;100337.12;4430652;32;19989;-77
2022/09/22 05:06:35;;;;;;;;;;;;;;;12.36;59.60;100335.25;4430955;32;20000;-91
2022/09/22 05:09:02;;;;;;;;;;;;;;;12.72;58.63;100336.66;4430178;32;19973;-92
2022/09/22 05:11:30;;;;;;;;;;;;;;;12.66;58.76;100333.97;4417107;32;19974;-92
2022/09/22 05:13:57;;;;;;;;;;;;;;;12.67;59.05;100330.56;4430605;32;19974;-91
2022/09/22 05:16:24;;;;;;;;;;;;;;;12.67;59.17;100336.63;4431173;32;20001;-81
2022/09/22 05:18:51;;;;;;;;;;;;;;;12.78;58.72;100334.16;4428788;32;20469;-81
2022/09/22 05:21:18;;;;;;;;;;;;;;;12.75;58.42;100340.19;4415729;32;20000;-91
2022/09/22 05:23:45;;;;;;;;;;;;;;;12.56;59.50;100338.16;4430271;32;19974;-88
2022/09/22 05:26:12;;;;;;;;;;;;;;;12.69;58.74;100339.22;4404247;32;20373;-88
2022/09/22 05:28:39;;;;;;;;;;;;;;;12.63;58.55;100333.94;4428774;32;20291;-79
2022/09/22 05:31:07;;;;;;;;;;;;;;;12.70;58.53;100326.28;4406666;32;20003;-83
2022/09/22 05:33:33;;;;;;;;;;;;;;;12.97;57.77;100333.59;4415482;32;20004;-85
2022/09/22 05:36:00;;;;;;;;;;;;;;;13.01;57.87;100334.50;4414300;32;20643;-89
2022/09/22 05:38:27;;;;;;;;;;;;;;;12.92;58.52;100331.75;4427136;32;20024;-81
2022/09/22 05:40:54;;;;;;;;;;;;;;;12.66;59.18;100333.97;4417361;32;20021;-81
2022/09/22 05:43:21;;;;;;;;;;;;;;;12.84;58.96;100334.25;4390013;32;20413;-83
2022/09/22 05:45:48;;;;;;;;;;;;;;;12.86;59.12;100337.78;4397162;32;20348;-90
2022/09/22 05:48:15;;;;;;;;;;;;;;;12.98;58.95;100345.72;4397485;32;20043;-87
2022/09/22 05:50:42;;;;;;;;;;;;;;;12.86;59.69;100342.97;4408196;32;20008;-83
2022/09/22 05:53:09;;;;;;;;;;;;;;;12.98;59.60;100343.13;4399523;32;20013;-81
2022/09/22 05:55:37;;;;;;;;;;;;;;;13.29;58.32;100343.59;4398781;32;20039;-81
2022/09/22 05:58:03;;;;;;;;;;;;;;;13.33;58.23;100345.34;4411914;32;19974;-82
2022/09/22 06:00:30;;;;;;;;;;;;;;;13.24;59.14;100340.94;4410577;32;19985;-77
2022/09/22 06:02:57;;;;;;;;;;;;;;;13.29;59.24;100338.37;4414191;32;20318;-82
2022/09/22 06:05:24;;;;;;;;;;;;;;;13.15;59.44;100345.09;4414561;32;20066;-79
2022/09/22 06:07:55;;;;;;;;;;;;;;;13.21;59.88;100335.66;4426805;32;20319;-86
2022/09/22 06:10:22;;;;;;;;;;;;;;;13.15;59.92;100343.38;4430257;32;19969;-86
2022/09/22 06:12:49;;;;;;;;;;;;;;;13.38;59.67;100348.91;3830302;32;10033879;-87
2022/09/22 06:15:15;;;;;;;;;;;;;;;13.53;59.42;100347.34;4432927;32;19988;-89
2022/09/22 06:17:42;;;;;;;;;;;;;;;13.68;58.75;100347.53;4445317;32;20363;-78
2022/09/22 06:20:09;;;;;;;;;;;;;;;13.26;59.77;100353.94;4445186;32;20065;-75
2022/09/22 06:22:36;;;;;;;;;;;;;;;13.68;58.75;100358.81;4460056;32;19977;-82
2022/09/22 06:25:03;;;;;;;;;;;;;;;13.66;58.70;100354.47;4448724;32;19997;-81
2022/09/22 06:27:30;;;;;;;;;;;;;;;13.53;59.45;100352.53;4450824;32;19981;-82
2022/09/22 06:29:57;;;;;;;;;;;;;;;13.79;58.66;100356.34;4444532;32;19996;-87
2022/09/22 06:32:24;;;;;;;;;;;;;;;14.08;57.55;100353.19;4451242;32;19997;-87
2022/09/22 06:34:51;;;;;;;;;;;;;;;13.83;58.56;100355.50;4452852;32;19985;-86
2022/09/22 06:37:19;;;;;;;;;;;;;;;14.06;57.70;100352.28;4453372;32;19985;-81
2022/09/22 06:39:46;;;;;;;;;;;;;;;13.83;58.43;100355.50;4451599;32;19981;-82
2022/09/22 06:42:15;;;;;;;;;;;;;;;13.88;58.32;100359.06;4450983;32;19984;-87
2022/09/22 06:44:43;;;;;;;;;;;;;;;14.06;58.59;100354.88;4451569;32;20731;-81
2022/09/22 06:47:11;;;;;;;;;;;;;;;13.84;59.77;100356.38;4453308;32;20024;-79
2022/09/22 06:49:38;;;;;;;;;;;;;;;14.27;58.29;100355.09;4451035;32;20064;-81
2022/09/22 06:52:05;;;;;;;;;;;;;;;14.45;57.41;100350.91;4446784;32;20029;-83
2022/09/22 06:54:32;;;;;;;;;;;;;;;14.54;57.04;100348.41;4455098;32;19985;-76
2022/09/22 06:56:59;;;;;;;;;;;;;;;14.59;58.30;100346.72;4453097;32;20034;-81
2022/09/22 06:59:26;;;;;;;;;;;;;;;14.93;57.34;100357.38;4454051;32;19989;-88
2022/09/22 07:01:53;;;;;;;;;;;;;;;15.58;54.39;100359.47;4443939;32;19988;-91
2022/09/22 07:04:22;;;;;;;;;;;;;;;15.64;54.26;100354.28;4462742;32;19984;-86
2022/09/22 07:06:49;;;;;;;;;;;;;;;16.04;53.78;100346.56;4463284;32;19985;-87
2022/09/22 07:09:16;;;;;;;;;;;;;;;16.50;52.07;100350.13;4463095;32;20753;-91
2022/09/22 07:11:43;;;;;;;;;;;;;;;16.90;50.57;100346.63;4462061;32;19984;-90
2022/09/22 07:14:11;;;;;;;;;;;;;;;16.90;50.75;100349.25;4463105;32;20318;-88
2022/09/22 07:16:39;;;;;;;;;;;;;;;17.07;51.06;100347.47;4463043;32;19977;-93
2022/09/22 07:19:06;;;;;;;;;;;;;;;17.55;50.10;100344.69;4462980;32;20000;-86
2022/09/22 07:21:36;;;;;;;;;;;;;;;17.57;49.24;100343.81;4449237;32;19992;-93
2022/09/22 07:24:03;;;;;;;;;;;;;;;18.02;47.64;100349.69;4462701;32;19970;-92
2022/09/22 07:26:31;;;;;;;;;;;;;;;18.10;48.71;100350.53;4462624;32;20052;-91
2022/09/22 07:28:59;;;;;;;;;;;;;;;18.26;48.20;100348.69;4462891;32;20029;-89
2022/09/22 07:31:27;;;;;;;;;;;;;;;18.63;46.37;100347.50;4462949;32;19987;-90
2022/09/22 07:33:54;;;;;;;;;;;;;;;18.63;48.68;100352.75;4461944;32;19981;-86
2022/09/22 07:36:22;;;;;;;;;;;;;;;18.84;46.23;100349.97;4461690;32;19981;-87
2022/09/22 07:38:50;;;;;;;;;;;;;;;18.65;47.05;100346.63;4462717;32;19991;-89
2022/09/22 07:41:17;;;;;;;;;;;;;;;18.98;45.50;100352.47;4461311;32;19996;-84
2022/09/22 07:43:44;;;;;;;;;;;;;;;19.25;45.80;100351.31;4447813;32;20309;-88
2022/09/22 07:46:12;;;;;;;;;;;;;;;18.99;47.47;100349.84;4448781;32;20052;-87
2022/09/22 07:48:44;;;;;;;;;;;;;;;19.49;45.02;100353.62;4448085;32;20981;-87
2022/09/22 07:51:11;;;;;;;;;;;;;;;19.38;45.03;100363.41;4462300;32;19989;-87
2022/09/22 07:53:42;;;;;;;;;;;;;;;19.26;45.25;100353.91;4462250;32;19976;-86
2022/09/22 07:56:11;;;;;;;;;;;;;;;18.96;44.86;100347.25;4462994;32;19981;-86
2022/09/22 07:58:40;;;;;;;;;;;;;;;19.25;46.38;100351.31;4462049;32;20269;-86
2022/09/22 08:01:10;;;;;;;;;;;;;;;19.56;45.85;100351.81;4462081;32;19976;-86
2022/09/22 08:03:38;;;;;;;;;;;;;;;19.46;45.36;100350.16;4462243;32;20371;-86
2022/09/22 08:06:11;;;;;;;;;;;;;;;19.77;44.89;100345.44;4462041;32;20011;-83
2022/09/22 08:08:38;;;;;;;;;;;;;;;20.14;43.15;100352.81;4461727;32;19984;-86
2022/09/22 08:11:06;;;;;;;;;;;;;;;20.32;42.21;100349.88;4462226;32;20033;-81
2022/09/22 08:13:33;;;;;;;;;;;;;;;19.83;42.06;100350.59;4462607;32;20035;-86
2022/09/22 08:16:02;;;;;;;;;;;;;;;19.95;43.19;100358.31;4448285;32;19988;-87
2022/09/22 08:18:29;;;;;;;;;;;;;;;20.07;42.88;100356.41;4461730;32;20310;-86
2022/09/22 08:20:57;;;;;;;;;;;;;;;20.02;42.67;100360.88;4461683;32;19985;-85
2022/09/22 08:23:23;;;;;;;;;;;;;;;20.34;42.08;100363.88;4462491;32;20376;-86
2022/09/22 08:25:50;;;;;;;;;;;;;;;20.08;43.10;100363.41;4461953;32;20029;-86
2022/09/22 08:28:17;;;;;;;;;;;;;;;20.31;43.90;100363.94;4462531;32;20044;-86
2022/09/22 08:30:47;;;;;;;;;;;;;;;20.24;43.59;100359.66;4461050;32;19984;-87
2022/09/22 08:33:14;;;;;;;;;;;;;;;20.57;41.54;100360.03;4461612;32;19988;-84
2022/09/22 08:35:53;;;;;;;;;;;;;;;20.33;41.80;100359.53;4461938;32;20030;-78
2022/09/22 08:38:22;;;;;;;;;;;;;;;20.41;41.66;100360.25;4462144;32;20023;-86
2022/09/22 08:40:55;;;;;;;;;;;;;;;20.35;42.53;100346.34;4447770;32;20026;-81
2022/09/22 08:43:22;;;;;;;;;;;;;;;20.57;44.07;100349.53;4447366;32;20506;-82
2022/09/22 08:45:48;;;;;;;;;;;;;;;20.87;41.03;100354.28;4462322;32;19991;-85
2022/09/22 08:53:59;;;;;;;;;;;;;;;21.31;39.78;100339.41;4440898;32;19992;-85
2022/09/22 08:56:43;;;;;;;;;;;;;;;21.55;37.99;100334.56;4448894;32;19984;-85
2022/09/22 08:59:22;;;;;;;;;;;;;;;21.13;40.92;100340.62;4447660;32;20023;-86
2022/09/22 09:02:08;;;;;;;;;;;;;;;21.20;39.55;100341.38;4447918;32;19995;-86
2022/09/22 09:04:59;;;;;;;;;;;;;;;21.23;38.23;100336.03;4445047;32;20663;-86
2022/09/22 09:07:38;;;;;;;;;;;;;;;21.10;38.35;100338.03;4432458;32;20028;-85
2022/09/22 09:10:24;;;;;;;;;;;;;;;20.93;41.40;100341.87;4441581;32;19981;-86
2022/09/22 09:12:57;;;;;;;;;;;;;;;21.00;39.03;100348.78;4460973;32;19972;-82
2022/09/22 09:15:24;;;;;;;;;;;;;;;21.01;40.27;100342.63;4461736;32;19988;-78
2022/09/22 09:17:51;;;;;;;;;;;;;;;21.08;40.33;100341.59;4461698;32;19981;-81
2022/09/22 09:20:20;;;;;;;;;;;;;;;21.14;38.95;100339.72;4462393;32;19996;-81
2022/09/22 09:22:54;;;;;;;;;;;;;;;20.52;43.14;100346.13;4421602;32;20012;-81
2022/09/22 09:25:51;;;;;;;;;;;;;;;21.17;39.98;100336.16;4447435;32;19992;-84
2022/09/22 09:28:19;;;;;;;;;;;;;;;20.92;41.93;100337.50;4454921;32;19991;-85
2022/09/22 09:30:53;;;;;;;;;;;;;;;20.79;40.22;100339.50;4435679;32;20923;-78
2022/09/22 09:33:22;;;;;;;;;;;;;;;21.57;36.42;100332.75;4447308;32;19960;-84
2022/09/22 09:35:52;;;;;;;;;;;;;;;21.41;38.19;100340.12;4461323;32;19985;-78
2022/09/22 09:38:27;;;;;;;;;;;;;;;21.39;36.60;100338.41;4462005;32;20449;-77
2022/09/22 09:41:16;;;;;;;;;;;;;;;20.62;38.15;100345.06;4458426;32;19988;-86
2022/09/22 09:43:44;;;;;;;;;;;;;;;20.58;39.33;100340.72;4449712;32;19974;-85
2022/09/22 09:46:13;;;;;;;;;;;;;;;21.08;36.29;100338.97;4458684;32;19984;-85
2022/09/22 09:48:47;;;;;;;;;;;;;;;20.88;37.32;100345.47;4447082;32;20001;-83
2022/09/22 09:51:14;;;;;;;;;;;;;;;20.24;41.32;100350.91;4453167;32;19995;-83
2022/09/22 09:53:42;;;;;;;;;;;;;;;19.69;41.43;100347.31;4460978;32;19987;-80
2022/09/22 09:56:15;;;;;;;;;;;;;;;19.62;41.75;100345.59;4461480;32;20029;-78
2022/09/22 10:01:41;;;;;;;;;;;;;;;20.87;37.58;100343.75;4460090;32;19985;-80
2022/09/22 10:04:16;;;;;;;;;;;;;;;19.95;41.90;100341.69;4446857;32;19969;-84
2022/09/22 10:06:43;;;;;;;;;;;;;;;20.12;40.58;100336.19;4459849;32;19980;-87
2022/09/22 10:09:11;;;;;;;;;;;;;;;19.70;42.70;100338.53;4430197;32;19985;-85
2022/09/22 10:11:38;;;;;;;;;;;;;;;20.02;41.76;100345.09;4431525;32;19993;-85
2022/09/22 10:14:07;;;;;;;;;;;;;;;19.85;40.42;100333.06;4446046;32;20649;-85
2022/09/22 10:16:35;;;;;;;;;;;;;;;20.24;40.33;100340.41;4439438;32;20431;-88
2022/09/22 10:19:15;;;;;;;;;;;;;;;19.95;41.15;100342.56;4460829;32;19988;-83
2022/09/22 10:21:42;;;;;;;;;;;;;;;19.61;43.20;100333.38;4446817;32;19978;-85
2022/09/22 10:24:30;;;;;;;;;;;;;;;19.81;40.41;100336.63;4460822;32;20645;-87
2022/09/22 10:26:57;;;;;;;;;;;;;;;19.69;41.52;100337.69;4456784;32;19977;-79
2022/09/22 10:29:29;;;;;;;;;;;;;;;19.38;43.96;100341.53;4461319;32;20059;-81
2022/09/22 10:32:01;;;;;;;;;;;;;;;19.83;42.36;100340.09;4461142;32;19985;-86
2022/09/22 10:34:38;;;;;;;;;;;;;;;20.11;43.23;100339.72;4461795;32;19991;-82
2022/09/22 10:37:09;;;;;;;;;;;;;;;20.82;38.53;100335.06;4463146;32;20348;-86
2022/09/22 10:39:52;;;;;;;;;;;;;;;21.02;36.44;100325.91;4448815;32;20375;-85
2022/09/22 10:42:19;;;;;;;;;;;;;;;20.61;40.74;100330.16;4448910;32;20355;-85
2022/09/22 10:44:46;;;;;;;;;;;;;;;21.12;37.15;100327.47;4463216;32;20384;-83
2022/09/22 10:47:41;;;;;;;;;;;;;;;21.23;38.17;100320.25;4448641;32;19977;-86
2022/09/22 10:50:08;;;;;;;;;;;;;;;21.42;35.81;100319.91;4460600;32;19981;-86
2022/09/22 10:52:40;;;;;;;;;;;;;;;21.53;35.64;100317.91;4463230;32;19992;-79
2022/09/22 10:55:18;;;;;;;;;;;;;;;21.41;38.32;100318.16;4463222;32;19973;-79
2022/09/22 10:57:58;;;;;;;;;;;;;;;21.24;37.50;100308.81;4449334;32;19988;-79
2022/09/22 11:00:25;;;;;;;;;;;;;;;22.05;34.90;100312.34;4444032;32;20321;-84
2022/09/22 11:02:55;;;;;;;;;;;;;;;21.81;37.10;100307.63;4448803;32;19981;-86
2022/09/22 11:14:16;;;;;;;;;;;;;;;22.15;33.73;100286.62;4451139;32;19977;-87
2022/09/22 11:16:45;;;;;;;;;;;;;;;22.13;35.08;100293.69;4449077;32;19995;-79
2022/09/22 11:19:17;;;;;;;;;;;;;;;22.18;32.80;100286.59;4454685;32;20722;-82
2022/09/22 11:21:50;;;;;;;;;;;;;;;21.63;33.64;100282.53;4461197;32;19989;-77
2022/09/22 11:24:17;;;;;;;;;;;;;;;21.24;36.90;100289.50;4462529;32;19995;-79
2022/09/22 11:26:46;;;;;;;;;;;;;;;21.06;35.80;100286.34;4462894;32;19970;-82
2022/09/22 11:29:28;;;;;;;;;;;;;;;21.51;34.40;100281.06;4448706;32;19977;-78
2022/09/22 11:32:03;;;;;;;;;;;;;;;21.69;34.05;100277.13;4440136;32;19988;-80
2022/09/22 11:34:49;;;;;;;;;;;;;;;21.23;36.26;100272.84;4460913;32;19977;-82
2022/09/22 11:37:26;;;;;;;;;;;;;;;21.27;38.56;100274.50;4447689;32;19969;-78
2022/09/22 11:40:12;;;;;;;;;;;;;;;21.93;36.22;100266.94;4447721;32;19989;-84
2022/09/22 11:43:02;;;;;;;;;;;;;;;21.81;36.60;100261.06;4448872;32;20033;-81
2022/09/22 11:45:33;;;;;;;;;;;;;;;21.97;33.98;100252.78;4453727;32;19985;-81
2022/09/22 11:48:00;;;;;;;;;;;;;;;22.63;33.90;100252.00;4462377;32;20355;-79
2022/09/22 11:50:48;;;;;;;;;;;;;;;22.26;33.66;100247.69;4457087;32;20004;-82
2022/09/22 11:53:19;;;;;;;;;;;;;;;21.87;36.52;100248.66;4451600;32;20000;-83
2022/09/22 11:55:53;;;;;;;;;;;;;;;21.84;34.43;100244.31;4454817;32;19993;-82
2022/09/22 11:58:21;;;;;;;;;;;;;;;21.74;33.84;100243.66;4456798;32;19991;-80
2022/09/22 12:00:59;;;;;;;;;;;;;;;21.63;34.59;100245.66;4455152;32;20054;-83
2022/09/22 12:03:29;;;;;;;;;;;;;;;21.45;35.94;100240.81;4455519;32;19981;-83
2022/09/22 12:06:00;;;;;;;;;;;;;;;21.57;35.72;100240.56;4438894;32;20000;-80
2022/09/22 12:08:32;;;;;;;;;;;;;;;21.64;34.85;100236.87;4446237;32;19981;-80
2022/09/22 12:10:59;;;;;;;;;;;;;;;21.50;35.86;100238.94;4446951;32;19990;-81
2022/09/22 12:13:26;;;;;;;;;;;;;;;21.27;35.23;100242.91;4421940;32;20023;-86
2022/09/22 12:15:57;;;;;;;;;;;;;;;21.25;36.40;100233.31;4392565;32;20397;-80
2022/09/22 12:18:27;;;;;;;;;;;;;;;21.13;38.09;100229.19;4408165;32;20052;-83
2022/09/22 12:20:58;;;;;;;;;;;;;;;20.89;39.29;100239.28;4438854;32;19972;-84
2022/09/22 12:23:33;;;;;;;;;;;;;;;20.79;38.81;100240.37;4386353;32;10012367;-79
2022/09/22 12:26:01;;;;;;;;;;;;;;;20.98;36.76;100234.75;4151476;32;5011192;-84
2022/09/22 12:28:29;;;;;;;;;;;;;;;20.94;39.35;100233.97;4434275;32;19997;-85
2022/09/22 12:31:04;;;;;;;;;;;;;;;21.06;38.67;100243.38;4448073;32;20057;-88
2022/09/22 12:33:32;;;;;;;;;;;;;;;20.94;39.92;100243.63;4462308;32;20265;-82
2022/09/22 12:36:00;;;;;;;;;;;;;;;20.67;37.90;100232.72;4447643;32;19984;-83
2022/09/22 12:38:29;;;;;;;;;;;;;;;20.67;40.08;100241.47;4440068;32;20018;-83
2022/09/22 12:40:58;;;;;;;;;;;;;;;20.86;39.27;100236.72;4462181;32;19993;-82
2022/09/22 12:43:25;;;;;;;;;;;;;;;20.73;39.43;100234.38;4462506;32;19976;-86
2022/09/22 12:45:52;;;;;;;;;;;;;;;20.76;40.50;100234.31;4462217;32;19977;-84
2022/09/22 12:48:21;;;;;;;;;;;;;;;20.65;39.65;100231.91;4461227;32;19992;-87
2022/09/22 12:50:48;;;;;;;;;;;;;;;20.72;38.45;100232.66;4461290;32;20035;-84
2022/09/22 12:53:21;;;;;;;;;;;;;;;20.74;39.08;100230.84;4462064;32;19977;-82
2022/09/22 12:55:49;;;;;;;;;;;;;;;20.10;40.75;100233.72;4462093;32;19989;-83
2022/09/22 12:58:19;;;;;;;;;;;;;;;19.72;41.08;100221.19;4448208;32;19969;-83
2022/09/22 13:00:46;;;;;;;;;;;;;;;20.15;41.60;100225.75;4461451;32;19981;-88
2022/09/22 13:03:25;;;;;;;;;;;;;;;20.16;40.21;100228.34;4461910;32;20000;-83
2022/09/22 13:05:55;;;;;;;;;;;;;;;20.30;40.01;100225.47;4462585;32;20028;-80
2022/09/22 13:08:23;;;;;;;;;;;;;;;20.09;40.39;100231.97;4462318;32;19977;-82